Time;durP1;ratioP1;P1;durP2;ratioP2;P2;SDS_P1;SDS_P2;PMS_P1;PMS_P2;Temp;Humidity;BMP_temperature;BMP_pressure;BME280_temperature;BME280_humidity;BME280_pressure;Samples;Min_cycle;Max_cycle;Signal;HPM_P1;HPM_P2
2021/12/04 00:00:17;;;;;;;5.75;4.28;;;8.80;99.90;;;;;;5124415;27;20211;-69
2021/12/04 00:03:07;;;;;;;8.90;5.45;;;8.80;99.90;;;;;;5117617;27;20330;-70
2021/12/04 00:05:53;;;;;;;6.15;5.55;;;8.70;99.90;;;;;;5119286;27;20211;-71
2021/12/04 00:08:35;;;;;;;6.07;5.30;;;8.50;99.90;;;;;;5119841;27;20234;-70
2021/12/04 00:11:11;;;;;;;5.10;4.60;;;8.50;99.90;;;;;;5129448;27;20449;-70
2021/12/04 00:14:05;;;;;;;5.90;5.32;;;8.40;99.90;;;;;;5127013;27;20221;-70
2021/12/04 00:16:47;;;;;;;6.93;6.22;;;8.30;99.90;;;;;;5117137;27;20326;-69
2021/12/04 00:19:22;;;;;;;6.47;5.95;;;8.20;99.90;;;;;;5123853;27;20322;-71
2021/12/04 00:22:16;;;;;;;6.45;5.85;;;8.10;99.90;;;;;;5112869;27;20227;-70
2021/12/04 00:25:14;;;;;;;6.38;5.75;;;8.00;99.90;;;;;;5113321;28;20297;-70
2021/12/04 00:27:58;;;;;;;6.63;5.32;;;7.90;99.90;;;;;;5123149;27;20376;-71
2021/12/04 00:30:42;;;;;;;8.65;6.03;;;7.90;99.90;;;;;;5119360;27;20238;-70
2021/12/04 00:33:21;;;;;;;6.25;5.10;;;7.80;99.90;;;;;;5111017;28;20218;-70
2021/12/04 00:35:58;;;;;;;5.30;4.70;;;7.90;99.90;;;;;;5126501;27;20219;-71
2021/12/04 00:49:43;;;;;;;5.90;4.60;;;7.50;99.90;;;;;;5129039;27;20578;-69
2021/12/04 00:52:14;;;;;;;5.43;4.80;;;7.40;99.90;;;;;;5114958;27;20665;-70
2021/12/04 00:54:45;;;;;;;5.45;4.63;;;7.40;99.90;;;;;;5114261;28;20211;-69
2021/12/04 00:57:18;;;;;;;4.88;4.47;;;7.30;99.90;;;;;;5116631;28;20222;-69
2021/12/04 00:59:49;;;;;;;5.20;4.55;;;7.30;99.90;;;;;;5120618;27;20215;-70
2021/12/04 01:02:20;;;;;;;5.63;5.13;;;7.20;99.90;;;;;;5117799;27;20265;-72
2021/12/04 01:04:52;;;;;;;6.82;5.10;;;7.20;99.90;;;;;;5120137;27;20615;-69
2021/12/04 01:07:24;;;;;;;5.72;4.53;;;7.10;99.90;;;;;;5114247;27;20222;-69
2021/12/04 01:09:56;;;;;;;5.20;4.47;;;7.10;99.90;;;;;;5126331;27;20207;-70
2021/12/04 01:12:29;;;;;;;5.05;4.55;;;7.10;99.90;;;;;;5119926;27;20204;-70
2021/12/04 01:15:00;;;;;;;5.25;4.22;;;7.10;99.90;;;;;;5117104;27;20217;-69
2021/12/04 01:17:37;;;;;;;7.38;5.15;;;7.00;99.90;;;;;;5118868;27;20235;-69
2021/12/04 01:20:15;;;;;;;4.80;4.22;;;7.00;99.90;;;;;;5119196;27;20276;-72
2021/12/04 01:22:46;;;;;;;5.50;5.00;;;6.90;99.90;;;;;;5116928;27;20250;-72
2021/12/04 01:25:22;;;;;;;5.28;4.68;;;6.80;99.90;;;;;;5118349;27;21181;-72
2021/12/04 01:27:57;;;;;;;6.03;5.43;;;6.90;99.90;;;;;;5111830;27;20211;-73
2021/12/04 01:31:01;;;;;;;7.82;6.22;;;6.80;99.90;;;;;;5109943;27;20218;-82
2021/12/04 01:33:32;;;;;;;6.45;5.43;;;6.60;99.90;;;;;;5121837;27;20219;-73
2021/12/04 01:36:15;;;;;;;7.80;5.22;;;6.60;99.90;;;;;;5125457;27;20302;-75
2021/12/04 01:38:52;;;;;;;7.82;6.40;;;6.60;99.90;;;;;;5124595;27;20218;-71
2021/12/04 01:41:34;;;;;;;11.90;7.30;;;6.50;99.90;;;;;;5115508;27;20746;-71
2021/12/04 01:44:08;;;;;;;8.30;7.50;;;6.50;99.90;;;;;;5124517;27;20233;-71
2021/12/04 01:46:39;;;;;;;7.78;6.70;;;6.40;99.90;;;;;;5129913;27;20225;-71
2021/12/04 01:49:10;;;;;;;7.30;6.10;;;6.40;99.90;;;;;;5128589;27;20217;-71
2021/12/04 01:51:40;;;;;;;9.20;6.90;;;6.40;99.90;;;;;;5128101;27;20217;-70
2021/12/04 01:54:11;;;;;;;7.22;6.53;;;6.40;99.90;;;;;;5128746;27;20229;-70
2021/12/04 01:56:43;;;;;;;7.95;6.68;;;6.30;99.90;;;;;;5129872;27;20209;-69
2021/12/04 01:59:15;;;;;;;9.80;7.22;;;6.20;99.90;;;;;;5112784;27;20209;-70
2021/12/04 02:01:46;;;;;;;6.60;6.00;;;6.20;99.90;;;;;;5113153;27;20223;-69
2021/12/04 02:04:17;;;;;;;9.15;6.43;;;6.20;99.90;;;;;;5123673;27;20211;-70
2021/12/04 02:06:48;;;;;;;7.28;6.55;;;6.10;99.90;;;;;;5124896;27;20282;-71
2021/12/04 02:09:36;;;;;;;9.88;6.80;;;6.10;99.90;;;;;;5117911;27;20222;-72
2021/12/04 02:12:10;;;;;;;8.05;7.22;;;6.20;99.90;;;;;;5118631;27;20246;-69
2021/12/04 02:14:43;;;;;;;7.78;7.05;;;6.10;99.90;;;;;;5122499;27;20203;-72
2021/12/04 02:17:14;;;;;;;7.35;6.30;;;6.10;99.90;;;;;;5116840;27;20322;-70
2021/12/04 02:19:48;;;;;;;6.68;5.78;;;6.10;99.90;;;;;;5124465;27;20235;-69
2021/12/04 02:22:20;;;;;;;7.53;6.72;;;6.10;99.90;;;;;;5128811;27;20223;-69
2021/12/04 02:24:51;;;;;;;9.23;6.82;;;6.10;99.90;;;;;;5129297;27;20233;-69
2021/12/04 02:27:22;;;;;;;8.50;7.70;;;6.10;99.90;;;;;;5123600;27;20216;-70
2021/12/04 02:29:53;;;;;;;9.18;7.55;;;6.00;99.90;;;;;;5115375;27;20533;-68
2021/12/04 02:32:24;;;;;;;11.43;7.10;;;6.00;99.90;;;;;;5116726;27;20221;-69
2021/12/04 02:34:55;;;;;;;8.65;7.88;;;6.00;99.90;;;;;;5122598;27;20637;-70
2021/12/04 02:37:27;;;;;;;8.75;7.95;;;5.90;99.90;;;;;;5128150;27;20582;-71
2021/12/04 02:40:02;;;;;;;8.90;8.00;;;5.80;99.90;;;;;;5121281;27;20241;-77
2021/12/04 02:42:33;;;;;;;8.80;7.97;;;5.80;99.90;;;;;;5117228;27;20236;-70
2021/12/04 02:45:08;;;;;;;12.77;10.63;;;5.90;99.90;;;;;;5126584;27;20215;-70
2021/12/04 02:47:39;;;;;;;20.73;12.77;;;5.80;99.90;;;;;;5129342;27;20262;-74
2021/12/04 02:50:12;;;;;;;17.90;13.30;;;5.80;99.90;;;;;;5125920;27;20207;-69
2021/12/04 02:52:45;;;;;;;16.65;12.48;;;5.80;99.90;;;;;;5129156;27;20272;-71
2021/12/04 02:55:18;;;;;;;16.38;13.85;;;5.80;99.90;;;;;;5119239;27;20211;-73
2021/12/04 02:57:49;;;;;;;16.42;13.50;;;5.80;99.90;;;;;;5129176;27;20223;-74
2021/12/04 03:00:24;;;;;;;14.65;12.77;;;5.70;99.90;;;;;;5115736;27;20218;-73
2021/12/04 03:02:56;;;;;;;20.95;12.20;;;5.70;99.90;;;;;;5125964;27;20241;-75
2021/12/04 03:05:29;;;;;;;14.63;12.80;;;5.70;99.90;;;;;;5123860;27;20626;-73
2021/12/04 03:08:10;;;;;;;15.23;13.38;;;5.70;99.90;;;;;;5125725;27;20207;-74
2021/12/04 03:10:47;;;;;;;15.00;13.20;;;5.70;99.90;;;;;;5117934;27;20221;-75
2021/12/04 03:13:45;;;;;;;16.88;12.52;;;5.70;99.90;;;;;;5076330;27;20207;-78
2021/12/04 03:19:36;;;;;;;14.43;12.98;;;5.60;99.90;;;;;;5121471;27;20706;-69
2021/12/04 03:23:11;;;;;;;17.02;12.73;;;5.50;99.90;;;;;;5115838;27;20214;-80
2021/12/04 03:25:47;;;;;;;13.13;11.63;;;5.50;99.90;;;;;;5102177;28;20556;-68
2021/12/04 03:28:19;;;;;;;15.52;13.10;;;5.40;99.90;;;;;;5103464;28;20243;-73
2021/12/04 03:30:58;;;;;;;14.13;12.68;;;5.40;99.90;;;;;;5099627;28;20227;-69
2021/12/04 03:43:00;;;;;;;17.23;11.85;;;5.30;99.90;;;;;;5091102;28;20216;-75
2021/12/04 03:45:38;;;;;;;13.27;11.88;;;5.20;99.90;;;;;;5099589;28;20215;-74
2021/12/04 03:59:24;;;;;;;13.98;12.02;;;5.20;99.90;;;;;;6057365;23;20331;31
2021/12/04 04:02:27;;;;;;;13.20;11.57;;;5.20;99.90;;;;;;4904042;29;20227;-74
2021/12/04 04:05:20;;;;;;;13.45;11.90;;;5.10;99.90;;;;;;4846469;29;20239;-73
2021/12/04 04:12:13;;;;;;;17.40;12.60;;;5.10;99.90;;;;;;4871173;29;20695;-75
2021/12/04 04:18:13;;;;;;;16.50;13.23;;;5.10;99.90;;;;;;4906204;29;20779;-74
2021/12/04 04:21:02;;;;;;;;;;;;;;;;;;;;;
2021/12/04 04:27:27;;;;;;;18.02;15.38;;;4.90;99.90;;;;;;4907672;29;20222;-75
2021/12/04 04:30:44;;;;;;;;;;;;;;;;;;;;;
2021/12/04 15:36:50;;;;;;;31.13;19.80;;;6.30;99.90;;;;;;4935145;29;20276;-68
2021/12/04 15:39:40;;;;;;;31.52;19.45;;;6.30;99.90;;;;;;4949948;28;20228;-73
2021/12/04 15:42:28;;;;;;;32.42;21.20;;;6.40;99.90;;;;;;4950553;28;20224;-68
2021/12/04 15:45:15;;;;;;;24.90;17.58;;;6.40;99.90;;;;;;4937837;29;20233;-67
2021/12/04 15:47:50;;;;;;;32.00;20.48;;;6.40;99.90;;;;;;4942728;29;20225;-67
2021/12/04 15:50:41;;;;;;;31.45;21.00;;;6.40;99.90;;;;;;4945057;29;20224;-67
2021/12/04 15:53:14;;;;;;;26.50;19.73;;;6.50;99.90;;;;;;4949744;29;20225;-68
2021/12/04 15:55:49;;;;;;;23.70;18.90;;;6.50;99.90;;;;;;4939893;29;20272;-66
2021/12/04 15:58:21;;;;;;;26.25;19.75;;;6.50;99.90;;;;;;4946902;29;20225;-67
2021/12/04 16:00:54;;;;;;;31.20;20.58;;;6.60;99.90;;;;;;4947274;29;20632;-68
2021/12/04 16:03:27;;;;;;;24.52;18.70;;;6.60;99.90;;;;;;4946830;29;20237;-67
2021/12/04 16:06:03;;;;;;;46.08;22.67;;;6.70;99.90;;;;;;4944106;29;20718;-67
2021/12/04 16:08:36;;;;;;;23.92;17.40;;;6.70;99.90;;;;;;4945794;29;20243;-67
2021/12/04 16:11:17;;;;;;;24.02;16.90;;;6.80;99.90;;;;;;4938774;29;20253;-68
2021/12/04 16:13:52;;;;;;;21.58;16.98;;;6.80;99.90;;;;;;4949078;28;20327;-67
2021/12/04 16:16:26;;;;;;;21.92;16.10;;;6.80;99.90;;;;;;4945884;28;20220;-67
2021/12/04 16:18:57;;;;;;;19.90;15.38;;;6.80;99.90;;;;;;4943393;29;20225;-68
2021/12/04 16:21:30;;;;;;;21.33;15.80;;;6.90;99.90;;;;;;4949137;28;20225;-67
2021/12/04 16:24:01;;;;;;;17.23;13.80;;;6.90;99.90;;;;;;4943832;29;20242;-67
2021/12/04 16:26:32;;;;;;;22.10;14.77;;;7.00;99.90;;;;;;4947475;29;20540;-68
2021/12/04 16:29:08;;;;;;;19.52;14.50;;;7.10;99.90;;;;;;4945707;29;20221;-68
2021/12/04 16:32:01;;;;;;;18.63;14.90;;;7.10;99.90;;;;;;4940610;29;20244;-67
2021/12/04 16:37:33;;;;;;;15.10;12.52;;;7.20;99.90;;;;;;4948687;28;20289;-68
2021/12/04 16:40:07;;;;;;;184.55;40.25;;;7.30;99.90;;;;;;4946893;28;20231;-69
2021/12/04 16:42:39;;;;;;;16.02;14.18;;;7.40;99.90;;;;;;4949193;28;20217;-69
2021/12/04 16:45:43;;;;;;;16.00;13.45;;;7.40;99.90;;;;;;4943524;29;20233;-72
2021/12/04 16:48:35;;;;;;;13.85;11.77;;;7.40;99.90;;;;;;4947378;29;20236;-71
2021/12/04 16:57:26;;;;;;;17.42;12.70;;;7.60;99.90;;;;;;4951176;28;20224;-71
2021/12/04 16:59:57;;;;;;;14.88;12.73;;;7.70;99.90;;;;;;4950075;29;20225;-70
2021/12/04 17:02:35;;;;;;;14.88;11.82;;;7.80;99.90;;;;;;4941688;29;20221;-71
2021/12/04 17:05:17;;;;;;;13.98;12.10;;;7.80;99.90;;;;;;4941324;28;20300;-70
2021/12/04 17:08:17;;;;;;;13.73;12.38;;;7.80;99.90;;;;;;4943740;29;20229;-73
2021/12/04 17:11:18;;;;;;;14.80;12.55;;;7.80;99.90;;;;;;4938213;29;20301;-71
2021/12/04 17:17:36;;;;;;;15.13;12.07;;;7.80;99.90;;;;;;4923437;29;20233;-70
2021/12/04 17:20:28;;;;;;;13.40;11.93;;;7.90;99.90;;;;;;4943132;29;20227;-74
2021/12/04 17:23:00;;;;;;;16.73;12.25;;;8.00;99.90;;;;;;4947805;29;20754;-65
2021/12/04 17:29:30;;;;;;;14.65;11.93;;;8.00;99.90;;;;;;4950503;28;20220;-70
2021/12/04 17:32:04;;;;;;;16.08;11.65;;;8.00;99.90;;;;;;4950225;29;20922;-69
2021/12/04 17:34:39;;;;;;;23.38;15.18;;;8.00;99.90;;;;;;4949542;28;20326;-69
2021/12/04 17:37:10;;;;;;;17.10;11.55;;;8.10;99.90;;;;;;4952321;28;20695;-66
2021/12/04 17:39:41;;;;;;;14.80;10.50;;;8.20;99.90;;;;;;4952053;28;20559;-69
2021/12/04 17:42:13;;;;;;;14.23;12.48;;;8.10;99.90;;;;;;4944066;29;20276;-68
2021/12/04 17:44:46;;;;;;;12.30;10.60;;;8.10;99.90;;;;;;4956325;28;20232;-71
2021/12/04 17:47:21;;;;;;;14.63;11.60;;;8.00;99.90;;;;;;4949817;29;20572;-70
2021/12/04 17:49:56;;;;;;;13.10;10.50;;;8.00;99.90;;;;;;4949114;29;20746;-72
2021/12/04 17:52:35;;;;;;;12.85;10.75;;;8.00;99.90;;;;;;4951474;28;20219;-71
2021/12/04 17:55:06;;;;;;;13.60;10.45;;;8.10;99.90;;;;;;4952001;28;20303;-70
2021/12/04 17:57:39;;;;;;;15.70;10.52;;;8.10;99.90;;;;;;4949888;28;20233;-70
2021/12/04 18:00:16;;;;;;;11.48;10.27;;;8.10;99.90;;;;;;4962159;28;20363;-71
2021/12/04 18:02:54;;;;;;;12.25;9.82;;;8.10;99.90;;;;;;4947909;28;20217;-72
2021/12/04 18:09:21;;;;;;;12.55;10.57;;;8.20;99.90;;;;;;4902477;29;20245;-74
2021/12/04 18:12:02;;;;;;;12.07;10.88;;;8.30;99.90;;;;;;4937224;29;20228;-69
2021/12/04 18:14:33;;;;;;;14.40;10.50;;;8.40;99.90;;;;;;4950580;28;20236;-67
2021/12/04 18:17:06;;;;;;;11.88;10.48;;;8.40;99.90;;;;;;4950780;28;20248;-67
2021/12/04 18:19:39;;;;;;;13.50;10.65;;;8.50;99.90;;;;;;4948724;28;20273;-71
2021/12/04 18:22:10;;;;;;;11.90;10.25;;;8.50;99.90;;;;;;4949452;29;20245;-67
2021/12/04 18:24:41;;;;;;;10.32;9.32;;;8.40;99.90;;;;;;4935219;29;20312;-68
2021/12/04 18:27:13;;;;;;;10.55;8.70;;;8.50;99.90;;;;;;4949679;29;20256;-68
2021/12/04 18:29:44;;;;;;;11.10;9.05;;;8.50;99.90;;;;;;4950964;28;20259;-68
2021/12/04 18:32:16;;;;;;;9.65;8.20;;;8.60;99.90;;;;;;4950078;29;20225;-66
2021/12/04 18:34:50;;;;;;;9.85;8.52;;;8.60;99.90;;;;;;4939741;28;20233;-67
2021/12/04 18:37:21;;;;;;;12.60;9.63;;;8.60;99.90;;;;;;4944054;29;20292;-68
2021/12/04 18:39:51;;;;;;;8.70;7.30;;;8.60;99.90;;;;;;4948025;29;20300;-67
2021/12/04 18:42:22;;;;;;;8.85;7.95;;;8.70;99.90;;;;;;4945066;28;20535;-67
2021/12/04 18:44:53;;;;;;;9.57;7.55;;;8.70;99.90;;;;;;4954814;28;20317;-68
2021/12/04 18:47:26;;;;;;;7.93;6.68;;;8.70;99.90;;;;;;4945923;28;20636;-68
2021/12/04 18:49:57;;;;;;;8.13;7.32;;;8.80;99.90;;;;;;4950121;28;20597;-68
2021/12/04 18:52:28;;;;;;;13.27;7.05;;;8.80;99.90;;;;;;4950908;28;20221;-68
2021/12/04 18:54:59;;;;;;;8.02;6.68;;;9.00;99.90;;;;;;4949701;29;20221;-68
2021/12/04 18:57:30;;;;;;;8.40;6.90;;;9.00;99.90;;;;;;4951793;28;20702;-68
2021/12/04 19:00:01;;;;;;;7.20;6.50;;;9.00;99.90;;;;;;4949932;28;20241;-68
2021/12/04 19:02:35;;;;;;;6.00;5.28;;;9.00;99.90;;;;;;4954233;28;20805;-69
2021/12/04 19:05:07;;;;;;;6.10;5.45;;;9.10;99.90;;;;;;4953338;28;20635;-68
2021/12/04 19:07:39;;;;;;;4.43;4.00;;;9.20;99.90;;;;;;4950025;28;20700;-68
2021/12/04 19:10:12;;;;;;;4.70;4.30;;;9.20;99.90;;;;;;4946213;29;20218;-67
2021/12/04 19:12:43;;;;;;;6.43;3.72;;;9.30;99.90;;;;;;4943022;28;20221;-67
2021/12/04 19:15:22;;;;;;;4.93;3.58;;;9.40;99.90;;;;;;4956143;28;20771;-67
2021/12/04 19:17:58;;;;;;;5.63;3.70;;;9.50;99.90;;;;;;4941841;28;20538;-68
2021/12/04 19:20:29;;;;;;;4.25;3.83;;;9.50;99.90;;;;;;4952404;28;20299;-67
2021/12/04 19:23:00;;;;;;;4.50;3.20;;;9.60;99.90;;;;;;4949509;28;20702;-67
2021/12/04 19:25:32;;;;;;;4.00;3.70;;;9.70;99.90;;;;;;4949305;28;20552;-68
2021/12/04 19:28:04;;;;;;;5.20;3.17;;;9.80;99.90;;;;;;4947696;28;20619;-69
2021/12/04 19:30:41;;;;;;;3.60;2.95;;;9.90;99.90;;;;;;4956595;28;20546;-68
2021/12/04 19:33:27;;;;;;;3.50;3.03;;;10.00;99.90;;;;;;4947632;28;20236;-68
2021/12/04 19:50:39;;;;;;;3.47;3.15;;;10.40;99.90;;;;;;4931840;28;20224;-68
2021/12/04 19:56:16;;;;;;;4.85;2.90;;;10.40;99.90;;;;;;4956658;28;20220;-67
2021/12/04 19:58:49;;;;;;;5.80;3.92;;;10.40;99.90;;;;;;4940267;28;20217;-67
2021/12/04 20:01:29;;;;;;;4.25;3.10;;;10.50;99.90;;;;;;4941658;28;20232;-68
2021/12/04 20:04:23;;;;;;;3.63;3.23;;;10.50;99.90;;;;;;4948143;28;20596;-68
2021/12/04 20:07:05;;;;;;;4.05;2.55;;;10.50;99.90;;;;;;4946473;28;20488;-67
2021/12/04 20:15:21;;;;;;;4.00;3.30;;;10.60;99.90;;;;;;4941898;28;20936;-71
2021/12/04 20:17:52;;;;;;;5.00;2.70;;;10.60;99.90;;;;;;4946832;28;20453;-71
2021/12/04 20:20:26;;;;;;;3.60;3.00;;;10.60;99.90;;;;;;4954360;28;20475;-71
2021/12/04 20:23:00;;;;;;;3.42;3.05;;;10.60;99.90;;;;;;4936604;28;20465;-71
2021/12/04 20:25:38;;;;;;;5.70;3.57;;;10.70;99.90;;;;;;4948698;28;20235;-71
2021/12/04 20:28:11;;;;;;;6.13;3.35;;;10.70;99.90;;;;;;4954002;28;20456;-70
2021/12/04 20:30:55;;;;;;;3.83;3.53;;;10.70;99.90;;;;;;4937756;28;20260;-71
2021/12/04 20:33:31;;;;;;;5.10;3.30;;;10.70;99.90;;;;;;4938412;29;20902;-71
2021/12/04 20:36:53;;;;;;;5.93;4.00;;;10.70;99.90;;;;;;4952846;28;20556;-70
2021/12/04 21:03:00;;;;;;;4.80;3.40;;;10.80;99.90;;;;;;4948946;28;20461;-67
2021/12/04 21:08:25;;;;;;;6.20;4.10;;;10.70;99.90;;;;;;4947718;28;20255;-68
2021/12/04 21:50:24;;;;;;;5.83;4.67;;;10.40;99.90;;;;;;4935041;29;20217;-71
2021/12/04 21:52:56;;;;;;;6.90;5.50;;;10.40;99.90;;;;;;4946884;29;20540;-73
2021/12/04 22:09:57;;;;;;;7.77;4.87;;;10.50;99.90;;;;;;4949499;29;20656;-74
2021/12/04 22:12:51;;;;;;;5.20;4.70;;;10.50;99.90;;;;;;4951634;28;20460;-77
2021/12/04 22:15:42;;;;;;;6.47;4.33;;;10.50;99.90;;;;;;4940619;29;20308;-71
2021/12/04 22:18:30;;;;;;;7.07;5.30;;;10.40;99.90;;;;;;4949662;28;20457;-69
2021/12/04 22:24:39;;;;;;;6.47;4.83;;;10.40;99.90;;;;;;4944918;28;20497;-73
2021/12/04 22:55:57;;;;;;;6.43;4.63;;;10.40;99.90;;;;;;4941729;28;20476;-75
2021/12/04 22:58:30;;;;;;;6.13;4.68;;;10.50;99.90;;;;;;4959625;28;20496;-74
2021/12/04 23:01:28;;;;;;;6.97;4.23;;;10.40;99.90;;;;;;4950054;28;20541;-75
2021/12/04 23:13:24;;;;;;;5.00;4.30;;;10.20;99.90;;;;;;4951579;28;20675;-77
2021/12/04 23:16:01;;;;;;;6.82;5.30;;;10.20;99.90;;;;;;4951441;28;20467;-76
2021/12/04 23:34:44;;;;;;;5.72;4.80;;;10.20;99.90;;;;;;5001425;28;20474;-74
2021/12/04 23:37:28;;;;;;;4.67;4.17;;;10.20;99.90;;;;;;5003853;28;20222;-73
2021/12/04 23:40:27;;;;;;;6.80;4.75;;;10.20;99.90;;;;;;5002542;28;20532;-72
2021/12/04 23:43:14;;;;;;;5.75;4.60;;;10.20;99.90;;;;;;5010840;28;20301;-72
